Time;durP1;ratioP1;P1;durP2;ratioP2;P2;SDS_P1;SDS_P2;PMS_P1;PMS_P2;Temp;Humidity;BMP_temperature;BMP_pressure;BME280_temperature;BME280_humidity;BME280_pressure;Samples;Min_cycle;Max_cycle;Signal;HPM_P1;HPM_P2
2023/12/07 00:02:09;;;;;;;30.53;18.50;;;;;;;;;;4962008;28;20185;-81
2023/12/07 00:04:35;;;;;;;28.20;18.30;;;;;;;;;;4962051;29;20885;-81
2023/12/07 00:07:01;;;;;;;30.38;18.23;;;;;;;;;;4960986;28;20451;-81
2023/12/07 00:09:27;;;;;;;28.27;19.63;;;;;;;;;;4962265;29;20184;-80
2023/12/07 00:11:53;;;;;;;30.92;18.85;;;;;;;;;;4973932;28;20483;-84
2023/12/07 00:14:19;;;;;;;29.45;18.83;;;;;;;;;;4981420;28;20188;-80
2023/12/07 00:16:45;;;;;;;28.48;17.95;;;;;;;;;;4981192;28;20757;-81
2023/12/07 00:19:10;;;;;;;31.77;19.33;;;;;;;;;;4981307;28;20210;-81
2023/12/07 00:21:36;;;;;;;38.30;18.93;;;;;;;;;;4980646;28;20191;-80
2023/12/07 00:24:02;;;;;;;32.70;19.37;;;;;;;;;;4979722;28;20514;-80
2023/12/07 00:26:28;;;;;;;30.85;19.80;;;;;;;;;;4981332;28;20816;-80
2023/12/07 00:28:54;;;;;;;32.57;18.67;;;;;;;;;;4980704;28;20184;-81
2023/12/07 00:31:20;;;;;;;28.63;18.60;;;;;;;;;;4972943;28;21139;-81
2023/12/07 00:33:46;;;;;;;29.15;19.05;;;;;;;;;;4961237;29;20191;-81
2023/12/07 00:36:12;;;;;;;30.05;17.98;;;;;;;;;;4961058;28;20180;-81
2023/12/07 00:38:38;;;;;;;30.23;17.60;;;;;;;;;;4961671;29;20264;-81
2023/12/07 00:41:04;;;;;;;28.23;18.30;;;;;;;;;;4961009;28;20429;-81
2023/12/07 00:43:30;;;;;;;28.07;17.53;;;;;;;;;;4961580;29;20177;-80
2023/12/07 00:45:57;;;;;;;30.60;19.53;;;;;;;;;;4961025;29;20480;-81
2023/12/07 00:48:23;;;;;;;30.52;18.85;;;;;;;;;;4961719;28;20444;-81
2023/12/07 00:50:49;;;;;;;28.43;19.00;;;;;;;;;;4961720;28;20208;-81
2023/12/07 00:53:15;;;;;;;26.27;17.80;;;;;;;;;;4960890;29;20404;-81
2023/12/07 00:55:41;;;;;;;29.80;17.10;;;;;;;;;;4960691;28;20412;-81
2023/12/07 00:58:07;;;;;;;29.93;18.60;;;;;;;;;;4961136;29;20761;-81
2023/12/07 01:00:33;;;;;;;30.48;17.95;;;;;;;;;;4961135;28;20475;-82
2023/12/07 01:02:59;;;;;;;34.47;20.17;;;;;;;;;;4978629;28;20222;-81
2023/12/07 01:05:25;;;;;;;28.33;19.25;;;;;;;;;;4979909;28;20925;-81
2023/12/07 01:07:51;;;;;;;29.38;18.67;;;;;;;;;;4979577;28;20232;-81
2023/12/07 01:10:17;;;;;;;33.85;19.38;;;;;;;;;;4980109;28;20200;-81
2023/12/07 01:12:43;;;;;;;29.83;16.87;;;;;;;;;;4978273;28;20195;-81
2023/12/07 01:15:09;;;;;;;28.10;16.77;;;;;;;;;;4980033;28;20443;-82
2023/12/07 01:17:35;;;;;;;29.45;17.77;;;;;;;;;;4979968;28;20400;-81
2023/12/07 01:20:03;;;;;;;34.63;19.02;;;;;;;;;;4979089;28;20191;-81
2023/12/07 01:22:29;;;;;;;31.08;18.80;;;;;;;;;;4963849;28;20199;-80
2023/12/07 01:24:55;;;;;;;34.77;19.07;;;;;;;;;;4959858;28;20184;-81
2023/12/07 01:27:21;;;;;;;31.27;17.70;;;;;;;;;;4960155;28;20484;-81
2023/12/07 01:29:47;;;;;;;29.50;17.77;;;;;;;;;;4958890;28;20211;-81
2023/12/07 01:32:14;;;;;;;34.60;19.35;;;;;;;;;;4960546;28;20425;-81
2023/12/07 01:34:40;;;;;;;28.98;16.95;;;;;;;;;;4960482;28;20715;-80
2023/12/07 01:37:06;;;;;;;29.23;16.77;;;;;;;;;;4960007;28;20184;-80
2023/12/07 01:39:32;;;;;;;28.20;16.67;;;;;;;;;;4960374;28;20499;-80
2023/12/07 01:41:58;;;;;;;32.65;17.60;;;;;;;;;;4959222;28;20932;-81
2023/12/07 01:44:25;;;;;;;28.08;18.05;;;;;;;;;;4959137;28;20324;-81
2023/12/07 01:46:51;;;;;;;29.95;18.92;;;;;;;;;;4960443;28;20173;-80
2023/12/07 01:49:17;;;;;;;32.38;17.58;;;;;;;;;;4960041;28;20185;-80
2023/12/07 01:51:43;;;;;;;32.83;20.67;;;;;;;;;;4970728;28;20353;-80
2023/12/07 01:54:09;;;;;;;30.30;17.50;;;;;;;;;;4979048;28;20243;-80
2023/12/07 01:56:35;;;;;;;30.77;17.70;;;;;;;;;;4978750;28;20176;-80
2023/12/07 01:59:01;;;;;;;30.92;18.45;;;;;;;;;;4978762;28;20760;-81
2023/12/07 02:01:28;;;;;;;27.52;16.35;;;;;;;;;;4978597;28;20194;-80
2023/12/07 02:03:54;;;;;;;32.42;18.02;;;;;;;;;;4979810;28;20243;-80
2023/12/07 02:06:20;;;;;;;30.88;17.10;;;;;;;;;;4979206;28;20176;-80
2023/12/07 02:08:46;;;;;;;29.90;17.40;;;;;;;;;;4979100;28;20251;-80
2023/12/07 02:11:12;;;;;;;28.95;17.00;;;;;;;;;;4969832;28;20283;-80
2023/12/07 02:13:39;;;;;;;34.13;19.80;;;;;;;;;;4959600;28;20190;-80
2023/12/07 02:16:28;;;;;;;28.17;17.77;;;;;;;;;;4959724;29;20819;-81
2023/12/07 02:18:59;;;;;;;29.65;17.73;;;;;;;;;;4959094;28;20185;-80
2023/12/07 02:21:30;;;;;;;31.60;18.20;;;;;;;;;;4960185;28;20181;-80
2023/12/07 02:23:58;;;;;;;31.02;18.00;;;;;;;;;;4958887;29;20177;-82
2023/12/07 02:26:30;;;;;;;30.95;19.10;;;;;;;;;;4958796;28;20184;-80
2023/12/07 02:28:56;;;;;;;35.92;17.42;;;;;;;;;;4959497;29;20181;-83
2023/12/07 02:31:23;;;;;;;30.90;17.33;;;;;;;;;;4968479;28;20299;-80
2023/12/07 02:33:50;;;;;;;34.30;18.98;;;;;;;;;;4977608;28;20419;-80
2023/12/07 02:36:17;;;;;;;31.48;17.95;;;;;;;;;;4978802;28;20176;-80
2023/12/07 02:38:44;;;;;;;32.83;19.95;;;;;;;;;;4979077;28;20211;-80
2023/12/07 02:41:10;;;;;;;30.42;20.05;;;;;;;;;;4978690;28;20262;-81
2023/12/07 02:43:37;;;;;;;32.88;19.63;;;;;;;;;;4978888;28;20544;-80
2023/12/07 02:46:03;;;;;;;36.42;20.25;;;;;;;;;;4975262;28;20216;-80
2023/12/07 02:48:30;;;;;;;32.58;19.98;;;;;;;;;;4960219;28;20618;-80
2023/12/07 02:50:56;;;;;;;36.40;21.85;;;;;;;;;;4964546;28;20212;-80
2023/12/07 02:53:22;;;;;;;35.30;21.30;;;;;;;;;;4979398;28;20189;-80
2023/12/07 02:55:48;;;;;;;30.98;18.38;;;;;;;;;;4979285;28;20439;-80
2023/12/07 02:58:14;;;;;;;34.80;21.27;;;;;;;;;;4978370;28;20176;-81
2023/12/07 03:00:40;;;;;;;31.13;19.80;;;;;;;;;;4976011;28;20436;-81
2023/12/07 03:03:06;;;;;;;34.75;19.58;;;;;;;;;;4974293;28;20425;-81
2023/12/07 03:05:32;;;;;;;38.38;22.33;;;;;;;;;;4959412;28;20177;-81
2023/12/07 03:07:58;;;;;;;39.50;20.83;;;;;;;;;;4974360;28;20279;-81
2023/12/07 03:10:24;;;;;;;39.05;21.95;;;;;;;;;;4959225;28;20220;-81
2023/12/07 03:12:50;;;;;;;36.13;21.23;;;;;;;;;;4959156;28;20623;-80
2023/12/07 03:15:16;;;;;;;35.70;22.87;;;;;;;;;;4959049;28;20183;-81
2023/12/07 03:17:43;;;;;;;46.47;21.40;;;;;;;;;;4974011;28;20420;-81
2023/12/07 03:20:10;;;;;;;39.00;21.45;;;;;;;;;;4958570;28;20454;-81
2023/12/07 03:22:36;;;;;;;39.78;20.35;;;;;;;;;;4976369;28;20195;-81
2023/12/07 03:25:02;;;;;;;42.53;21.10;;;;;;;;;;4978474;28;20636;-82
2023/12/07 03:27:28;;;;;;;39.65;21.65;;;;;;;;;;4978564;28;20210;-81
2023/12/07 03:29:54;;;;;;;38.53;21.90;;;;;;;;;;4993228;28;20206;-80
2023/12/07 03:32:20;;;;;;;33.50;20.33;;;;;;;;;;4978126;28;20250;-81
2023/12/07 03:34:46;;;;;;;37.50;20.60;;;;;;;;;;4993561;28;20270;-81
2023/12/07 03:37:12;;;;;;;41.67;20.53;;;;;;;;;;4978803;28;20474;-81
2023/12/07 03:39:38;;;;;;;36.97;21.65;;;;;;;;;;4978626;28;20487;-80
2023/12/07 03:42:04;;;;;;;43.25;20.73;;;;;;;;;;4965061;28;20216;-81
2023/12/07 03:44:30;;;;;;;43.33;24.40;;;;;;;;;;4957639;29;20185;-80
2023/12/07 03:46:56;;;;;;;31.20;19.85;;;;;;;;;;4958970;28;20184;-80
2023/12/07 03:49:22;;;;;;;40.67;22.38;;;;;;;;;;4974153;28;20199;-80
2023/12/07 03:51:48;;;;;;;36.67;20.80;;;;;;;;;;4980563;28;20219;-80
2023/12/07 03:54:14;;;;;;;35.75;20.95;;;;;;;;;;4996851;28;20230;-80
2023/12/07 03:56:40;;;;;;;38.93;20.93;;;;;;;;;;4981231;28;20617;-80
2023/12/07 03:59:06;;;;;;;34.42;18.95;;;;;;;;;;4968306;28;20483;-81
2023/12/07 04:01:32;;;;;;;32.75;19.58;;;;;;;;;;4963251;29;20184;-80
2023/12/07 04:04:00;;;;;;;38.38;20.10;;;;;;;;;;4962575;28;20181;-80
2023/12/07 04:06:26;;;;;;;36.83;19.92;;;;;;;;;;4962402;28;20663;-80
2023/12/07 04:08:52;;;;;;;32.50;19.40;;;;;;;;;;4976222;28;20227;-80
2023/12/07 04:11:18;;;;;;;32.25;19.08;;;;;;;;;;4996686;28;20467;-80
2023/12/07 04:13:44;;;;;;;33.88;18.75;;;;;;;;;;4982210;28;20176;-81
2023/12/07 04:16:10;;;;;;;35.35;20.42;;;;;;;;;;4981394;28;20190;-81
2023/12/07 04:18:36;;;;;;;38.05;18.55;;;;;;;;;;4968917;28;20216;-81
2023/12/07 04:21:03;;;;;;;34.38;20.45;;;;;;;;;;4961822;28;20197;-80
2023/12/07 04:23:29;;;;;;;37.85;19.58;;;;;;;;;;4961890;28;20560;-80
2023/12/07 04:25:55;;;;;;;35.28;19.17;;;;;;;;;;4961844;29;20185;-81
2023/12/07 04:28:21;;;;;;;28.15;17.80;;;;;;;;;;4962026;28;20260;-81
2023/12/07 04:30:47;;;;;;;27.53;16.50;;;;;;;;;;4961639;28;20248;-81
2023/12/07 04:33:13;;;;;;;26.83;17.13;;;;;;;;;;4961686;28;20417;-81
2023/12/07 04:35:39;;;;;;;40.65;18.02;;;;;;;;;;4962144;28;20181;-81
2023/12/07 04:38:05;;;;;;;28.20;15.97;;;;;;;;;;4961750;28;20195;-82
2023/12/07 04:40:31;;;;;;;25.80;16.00;;;;;;;;;;4976930;28;20976;-81
2023/12/07 04:42:57;;;;;;;32.73;16.17;;;;;;;;;;4961727;28;20267;-80
2023/12/07 04:45:23;;;;;;;25.47;15.73;;;;;;;;;;4976202;28;20472;-81
2023/12/07 04:47:48;;;;;;;30.60;16.20;;;;;;;;;;4966071;28;20419;-81
2023/12/07 04:50:15;;;;;;;31.87;17.77;;;;;;;;;;4980884;28;20471;-81
2023/12/07 04:52:41;;;;;;;27.77;14.48;;;;;;;;;;4995603;28;20758;-81
2023/12/07 04:55:07;;;;;;;23.17;14.50;;;;;;;;;;4980251;28;20173;-81
2023/12/07 04:57:36;;;;;;;26.77;14.48;;;;;;;;;;4980295;28;20259;-81
2023/12/07 05:00:06;;;;;;;23.88;16.17;;;;;;;;;;4979312;28;20212;-81
2023/12/07 05:02:32;;;;;;;30.08;16.08;;;;;;;;;;4980747;28;20259;-81
2023/12/07 05:04:58;;;;;;;26.75;14.60;;;;;;;;;;4980298;28;20180;-81
2023/12/07 05:07:24;;;;;;;26.65;14.88;;;;;;;;;;4977859;28;20246;-81
2023/12/07 05:09:50;;;;;;;23.70;14.23;;;;;;;;;;4959532;28;20283;-81
2023/12/07 05:12:16;;;;;;;22.45;13.85;;;;;;;;;;4978112;28;20313;-81
2023/12/07 05:14:42;;;;;;;28.20;15.05;;;;;;;;;;4980143;28;20215;-81
2023/12/07 05:17:09;;;;;;;25.53;13.10;;;;;;;;;;4980277;28;20188;-82
2023/12/07 05:19:35;;;;;;;20.50;13.57;;;;;;;;;;4980380;28;20421;-81
2023/12/07 05:22:01;;;;;;;30.40;14.10;;;;;;;;;;4979820;28;20188;-81
2023/12/07 05:24:27;;;;;;;24.42;14.35;;;;;;;;;;4979869;28;20932;-81
2023/12/07 05:26:53;;;;;;;29.25;16.05;;;;;;;;;;4994919;28;20592;-80
2023/12/07 05:29:19;;;;;;;30.70;15.43;;;;;;;;;;4979753;28;20211;-81
2023/12/07 05:31:45;;;;;;;24.35;13.57;;;;;;;;;;4979167;28;21002;-81
2023/12/07 05:34:11;;;;;;;23.10;13.93;;;;;;;;;;4979064;28;20180;-81
2023/12/07 05:36:37;;;;;;;21.45;13.82;;;;;;;;;;4978636;28;20184;-81
2023/12/07 05:39:03;;;;;;;23.98;14.77;;;;;;;;;;4980162;28;20645;-81
2023/12/07 05:41:29;;;;;;;24.63;13.95;;;;;;;;;;4979217;28;20282;-81
2023/12/07 05:43:54;;;;;;;21.70;13.68;;;;;;;;;;4980386;28;20173;-81
2023/12/07 05:46:20;;;;;;;27.77;15.60;;;;;;;;;;4979734;28;20563;-81
2023/12/07 05:48:47;;;;;;;32.20;14.45;;;;;;;;;;4980160;28;20502;-81
2023/12/07 05:51:17;;;;;;;29.08;14.68;;;;;;;;;;4971750;28;20219;-82
2023/12/07 05:53:43;;;;;;;30.45;14.13;;;;;;;;;;4960843;28;20267;-81
2023/12/07 05:56:09;;;;;;;24.75;15.68;;;;;;;;;;4959440;28;20181;-83
2023/12/07 05:58:35;;;;;;;25.50;15.05;;;;;;;;;;4960321;28;20172;-81
2023/12/07 06:01:02;;;;;;;26.55;14.40;;;;;;;;;;4966032;28;20184;-81
2023/12/07 06:03:28;;;;;;;25.60;14.10;;;;;;;;;;4979804;28;20266;-81
2023/12/07 06:05:54;;;;;;;28.38;14.88;;;;;;;;;;4979984;28;20212;-81
2023/12/07 06:08:20;;;;;;;32.73;14.63;;;;;;;;;;4979555;28;20236;-81
2023/12/07 06:10:46;;;;;;;29.92;17.23;;;;;;;;;;4993550;28;20494;-81
2023/12/07 06:13:13;;;;;;;30.52;15.85;;;;;;;;;;4978947;28;20276;-81
2023/12/07 06:15:39;;;;;;;30.88;14.82;;;;;;;;;;4979591;28;20191;-81
2023/12/07 06:18:06;;;;;;;23.73;14.05;;;;;;;;;;4980096;28;20219;-81
2023/12/07 06:20:32;;;;;;;31.27;15.75;;;;;;;;;;4977420;28;20172;-81
2023/12/07 06:22:58;;;;;;;23.27;14.05;;;;;;;;;;4960109;28;20588;-81
2023/12/07 06:25:24;;;;;;;24.90;13.93;;;;;;;;;;4959838;28;20212;-81
2023/12/07 06:27:50;;;;;;;30.77;14.88;;;;;;;;;;4959357;29;20558;-82
2023/12/07 06:30:16;;;;;;;36.95;15.00;;;;;;;;;;4976046;28;20243;-81
2023/12/07 06:32:42;;;;;;;25.35;15.38;;;;;;;;;;4979156;28;20191;-81
2023/12/07 06:35:08;;;;;;;36.20;16.05;;;;;;;;;;4964225;28;20637;-79
2023/12/07 06:37:34;;;;;;;31.35;16.55;;;;;;;;;;4958347;29;20576;-78
2023/12/07 06:40:00;;;;;;;24.88;14.73;;;;;;;;;;4971692;28;20284;-78
2023/12/07 06:42:26;;;;;;;29.92;15.30;;;;;;;;;;4968674;28;20263;-78
2023/12/07 06:44:52;;;;;;;29.40;14.13;;;;;;;;;;4959008;28;20181;-79
2023/12/07 06:47:19;;;;;;;34.67;16.85;;;;;;;;;;4958991;29;20179;-79
2023/12/07 06:49:48;;;;;;;30.83;17.85;;;;;;;;;;4959362;29;20180;-79
2023/12/07 06:52:14;;;;;;;38.92;18.42;;;;;;;;;;4959117;28;20183;-79
2023/12/07 06:54:40;;;;;;;28.37;15.73;;;;;;;;;;4959423;29;20189;-79
2023/12/07 06:57:06;;;;;;;42.87;17.83;;;;;;;;;;4959633;29;20414;-79
2023/12/07 06:59:32;;;;;;;34.22;17.05;;;;;;;;;;4959028;28;21273;-80
2023/12/07 07:01:58;;;;;;;35.53;18.73;;;;;;;;;;4959837;28;20189;-79
2023/12/07 07:04:24;;;;;;;37.33;18.77;;;;;;;;;;4959404;28;20176;-79
2023/12/07 07:06:51;;;;;;;35.53;19.48;;;;;;;;;;4959484;28;20439;-79
2023/12/07 07:09:17;;;;;;;30.65;16.55;;;;;;;;;;4958862;28;20192;-79
2023/12/07 07:11:48;;;;;;;40.70;18.40;;;;;;;;;;4959825;28;20219;-79
2023/12/07 07:14:15;;;;;;;35.25;18.77;;;;;;;;;;4959347;29;20785;-81
2023/12/07 07:16:41;;;;;;;35.08;18.27;;;;;;;;;;4960367;29;20207;-79
2023/12/07 07:19:07;;;;;;;34.17;17.67;;;;;;;;;;4959727;29;20189;-79
2023/12/07 07:21:33;;;;;;;39.05;17.25;;;;;;;;;;4958863;28;20420;-79
2023/12/07 07:23:59;;;;;;;40.65;19.90;;;;;;;;;;4962542;28;20220;-79
2023/12/07 07:26:25;;;;;;;35.83;19.23;;;;;;;;;;4962647;28;20250;-79
2023/12/07 07:28:51;;;;;;;34.43;17.50;;;;;;;;;;4962977;29;20181;-79
2023/12/07 07:31:18;;;;;;;38.10;19.33;;;;;;;;;;4962581;29;20515;-80
2023/12/07 07:33:44;;;;;;;35.88;18.73;;;;;;;;;;4962648;29;20185;-79
2023/12/07 07:36:11;;;;;;;44.22;20.63;;;;;;;;;;4961610;28;20188;-79
2023/12/07 07:38:37;;;;;;;40.10;22.45;;;;;;;;;;4962312;28;20209;-79
2023/12/07 07:41:03;;;;;;;45.00;19.80;;;;;;;;;;4962656;28;20185;-79
2023/12/07 07:43:29;;;;;;;35.47;19.23;;;;;;;;;;4962605;29;20640;-79
2023/12/07 07:45:55;;;;;;;36.67;19.45;;;;;;;;;;4962922;28;20180;-79
2023/12/07 07:48:21;;;;;;;41.88;20.10;;;;;;;;;;4962382;28;20200;-79
2023/12/07 07:50:47;;;;;;;41.38;19.17;;;;;;;;;;4962938;29;20213;-79
2023/12/07 07:53:13;;;;;;;38.75;19.42;;;;;;;;;;4962023;28;20191;-79
2023/12/07 07:55:40;;;;;;;39.75;20.65;;;;;;;;;;4962761;28;20180;-79
2023/12/07 07:58:06;;;;;;;43.30;22.83;;;;;;;;;;4962362;29;20176;-79
2023/12/07 08:00:32;;;;;;;45.00;20.77;;;;;;;;;;4961255;28;20185;-79
2023/12/07 08:02:58;;;;;;;48.92;24.08;;;;;;;;;;4962170;29;20193;-78
2023/12/07 08:05:24;;;;;;;41.13;21.80;;;;;;;;;;4977508;28;20176;-79
2023/12/07 08:07:51;;;;;;;48.90;20.40;;;;;;;;;;4962023;28;20464;-79
2023/12/07 08:10:17;;;;;;;40.83;21.30;;;;;;;;;;4962593;28;20667;-83
2023/12/07 08:12:43;;;;;;;36.60;18.10;;;;;;;;;;4962329;29;20177;-79
2023/12/07 08:15:10;;;;;;;41.60;21.15;;;;;;;;;;4962538;29;20177;-78
2023/12/07 08:17:45;;;;;;;45.75;22.45;;;;;;;;;;4961481;28;20185;-79
2023/12/07 08:20:12;;;;;;;42.05;19.30;;;;;;;;;;4965034;29;20267;-79
2023/12/07 08:22:39;;;;;;;50.38;21.27;;;;;;;;;;4961736;28;20180;-78
2023/12/07 08:25:05;;;;;;;40.50;19.20;;;;;;;;;;4962649;28;20234;-79
2023/12/07 08:27:34;;;;;;;42.10;19.92;;;;;;;;;;4961453;28;20177;-79
2023/12/07 08:30:01;;;;;;;41.75;20.92;;;;;;;;;;4967230;28;20161;-78
2023/12/07 08:32:27;;;;;;;38.15;20.23;;;;;;;;;;4962466;29;20269;-78
2023/12/07 08:34:54;;;;;;;58.65;22.27;;;;;;;;;;4961907;28;20266;-78
2023/12/07 08:37:20;;;;;;;46.17;20.88;;;;;;;;;;4962976;28;20294;-79
2023/12/07 08:39:46;;;;;;;47.35;20.10;;;;;;;;;;4960327;29;20229;-79
2023/12/07 08:42:12;;;;;;;52.58;22.88;;;;;;;;;;4962114;29;20185;-79
2023/12/07 08:44:38;;;;;;;48.75;20.73;;;;;;;;;;4961605;29;20629;-79
2023/12/07 08:47:05;;;;;;;63.15;21.35;;;;;;;;;;4961381;29;20208;-79
2023/12/07 08:49:31;;;;;;;49.13;22.75;;;;;;;;;;4961625;28;20520;-79
2023/12/07 08:51:57;;;;;;;48.90;22.70;;;;;;;;;;4962490;28;20244;-79
2023/12/07 08:54:23;;;;;;;42.75;20.00;;;;;;;;;;4961544;29;20214;-79
2023/12/07 08:56:49;;;;;;;48.00;22.50;;;;;;;;;;4962874;29;20596;-78
2023/12/07 08:59:15;;;;;;;52.47;23.38;;;;;;;;;;4977694;28;20404;-78
2023/12/07 09:01:41;;;;;;;43.60;21.37;;;;;;;;;;4962517;29;20181;-78
2023/12/07 09:04:07;;;;;;;46.70;21.67;;;;;;;;;;4962384;28;20921;-78
2023/12/07 09:06:33;;;;;;;46.17;23.10;;;;;;;;;;4960955;29;20543;-78
2023/12/07 09:08:59;;;;;;;50.80;21.30;;;;;;;;;;4962385;28;20476;-78
2023/12/07 09:11:25;;;;;;;48.33;22.38;;;;;;;;;;4961966;29;20507;-78
2023/12/07 09:13:51;;;;;;;49.20;22.38;;;;;;;;;;4961407;29;20197;-78
2023/12/07 09:16:17;;;;;;;51.65;22.50;;;;;;;;;;4961642;29;20169;-78
2023/12/07 09:18:45;;;;;;;52.97;22.65;;;;;;;;;;4961695;28;20240;-77
2023/12/07 09:21:11;;;;;;;47.83;21.60;;;;;;;;;;4962826;28;20177;-78
2023/12/07 09:23:37;;;;;;;51.88;21.70;;;;;;;;;;4962207;29;20206;-78
2023/12/07 09:26:03;;;;;;;51.40;23.08;;;;;;;;;;4962362;28;20625;-77
2023/12/07 09:28:29;;;;;;;46.75;21.15;;;;;;;;;;4961152;28;20204;-78
2023/12/07 09:30:55;;;;;;;41.70;19.60;;;;;;;;;;4960006;29;20669;-78
2023/12/07 09:33:21;;;;;;;53.03;23.55;;;;;;;;;;4961509;29;20184;-78
2023/12/07 09:35:47;;;;;;;54.23;20.87;;;;;;;;;;4961664;28;20193;-78
2023/12/07 09:38:13;;;;;;;51.58;22.25;;;;;;;;;;4961457;29;20475;-78
2023/12/07 09:40:39;;;;;;;45.97;20.17;;;;;;;;;;4960544;29;20174;-78
2023/12/07 09:43:05;;;;;;;53.88;23.73;;;;;;;;;;4960630;29;20653;-78
2023/12/07 09:45:31;;;;;;;49.70;22.23;;;;;;;;;;4960214;28;20182;-79
2023/12/07 09:47:57;;;;;;;45.42;21.20;;;;;;;;;;4960603;28;20414;-78
2023/12/07 09:50:24;;;;;;;50.67;22.55;;;;;;;;;;4961254;29;20243;-79
2023/12/07 09:52:59;;;;;;;48.72;21.00;;;;;;;;;;4961024;28;20256;-78
2023/12/07 09:55:25;;;;;;;47.78;23.33;;;;;;;;;;4960774;29;20227;-79
2023/12/07 09:57:54;;;;;;;45.72;19.92;;;;;;;;;;4960657;29;20181;-78
2023/12/07 10:00:20;;;;;;;49.55;22.33;;;;;;;;;;4960382;28;20190;-79
2023/12/07 10:02:46;;;;;;;40.40;20.60;;;;;;;;;;4960668;28;20176;-79
2023/12/07 10:05:16;;;;;;;42.00;20.75;;;;;;;;;;4960025;29;20471;-79
2023/12/07 10:07:43;;;;;;;36.60;21.58;;;;;;;;;;4960061;28;20244;-79
2023/12/07 10:10:11;;;;;;;43.28;21.60;;;;;;;;;;4960238;29;20188;-79
2023/12/07 10:12:46;;;;;;;42.97;21.35;;;;;;;;;;4959834;29;20215;-80
2023/12/07 10:15:13;;;;;;;43.75;21.35;;;;;;;;;;4960233;29;20196;-79
2023/12/07 10:17:50;;;;;;;33.17;20.58;;;;;;;;;;4959932;28;20173;-79
2023/12/07 10:20:17;;;;;;;40.55;21.98;;;;;;;;;;4960422;29;20183;-78
2023/12/07 10:22:43;;;;;;;32.08;19.75;;;;;;;;;;4960530;29;20217;-78
2023/12/07 10:25:10;;;;;;;33.22;20.20;;;;;;;;;;4960163;28;20200;-78
2023/12/07 10:27:38;;;;;;;33.45;17.88;;;;;;;;;;4960403;29;20239;-79
2023/12/07 10:30:04;;;;;;;31.40;19.23;;;;;;;;;;4959917;29;20181;-78
2023/12/07 10:32:30;;;;;;;28.52;19.35;;;;;;;;;;4959929;29;20176;-79
2023/12/07 10:34:58;;;;;;;30.67;20.20;;;;;;;;;;4960862;28;20182;-78
2023/12/07 10:37:24;;;;;;;27.33;17.65;;;;;;;;;;4960800;29;20208;-78
2023/12/07 10:39:50;;;;;;;23.53;15.67;;;;;;;;;;4960074;28;20176;-78
2023/12/07 10:42:16;;;;;;;28.73;18.30;;;;;;;;;;4960716;29;20755;-78
2023/12/07 10:44:43;;;;;;;26.35;17.45;;;;;;;;;;4959910;29;20650;-78
2023/12/07 10:47:12;;;;;;;29.42;17.25;;;;;;;;;;4961819;29;20200;-78
2023/12/07 10:49:40;;;;;;;21.33;15.15;;;;;;;;;;4960243;28;20173;-78
2023/12/07 10:52:11;;;;;;;22.05;15.40;;;;;;;;;;4959935;29;20221;-78
2023/12/07 10:54:44;;;;;;;21.50;16.13;;;;;;;;;;4959954;29;20540;-79
2023/12/07 10:57:11;;;;;;;23.95;15.48;;;;;;;;;;4962111;28;20175;-78
2023/12/07 10:59:37;;;;;;;19.80;15.75;;;;;;;;;;4963412;28;20176;-78
2023/12/07 11:02:06;;;;;;;19.73;13.52;;;;;;;;;;4963734;29;20187;-78
2023/12/07 11:04:32;;;;;;;23.10;13.55;;;;;;;;;;4963692;29;20191;-78
2023/12/07 11:07:02;;;;;;;25.03;14.23;;;;;;;;;;4963517;29;20193;-78
2023/12/07 11:09:33;;;;;;;17.73;12.50;;;;;;;;;;4962480;29;20456;-79
2023/12/07 11:12:06;;;;;;;20.02;12.70;;;;;;;;;;4963526;28;20304;-78
2023/12/07 11:14:33;;;;;;;16.20;12.30;;;;;;;;;;4963269;29;20169;-79
2023/12/07 11:16:59;;;;;;;14.02;11.90;;;;;;;;;;4963576;28;20236;-78
2023/12/07 11:19:32;;;;;;;18.48;11.75;;;;;;;;;;4963272;28;20199;-78
2023/12/07 11:21:59;;;;;;;17.52;13.10;;;;;;;;;;4963254;29;20191;-78
2023/12/07 11:24:25;;;;;;;20.55;11.98;;;;;;;;;;4963202;28;20547;-78
2023/12/07 11:26:55;;;;;;;14.30;10.77;;;;;;;;;;4961431;28;20558;-78
2023/12/07 11:29:21;;;;;;;11.65;9.50;;;;;;;;;;4962786;29;20181;-78
2023/12/07 11:31:49;;;;;;;12.07;9.35;;;;;;;;;;4962856;28;20703;-79
2023/12/07 11:34:34;;;;;;;13.77;9.70;;;;;;;;;;4962595;28;20207;-79
2023/12/07 11:36:59;;;;;;;11.68;7.47;;;;;;;;;;4962456;29;20649;-78
2023/12/07 11:39:26;;;;;;;10.30;7.77;;;;;;;;;;4962167;29;20232;-78
2023/12/07 11:41:55;;;;;;;11.82;8.65;;;;;;;;;;4962159;29;20894;-78
2023/12/07 11:44:24;;;;;;;14.43;10.10;;;;;;;;;;4961988;28;20247;-79
2023/12/07 11:46:50;;;;;;;11.63;9.18;;;;;;;;;;4961652;29;20176;-79
2023/12/07 11:49:17;;;;;;;12.20;8.63;;;;;;;;;;4961626;28;20757;-78
2023/12/07 11:51:43;;;;;;;12.25;8.90;;;;;;;;;;4961698;29;20478;-78
2023/12/07 11:54:11;;;;;;;10.77;8.30;;;;;;;;;;4961364;28;20189;-78
2023/12/07 11:56:37;;;;;;;8.77;7.68;;;;;;;;;;4961388;29;20532;-79
2023/12/07 11:59:03;;;;;;;10.60;7.85;;;;;;;;;;4961735;28;20189;-79
2023/12/07 12:01:30;;;;;;;10.30;7.40;;;;;;;;;;4961628;28;20645;-78
2023/12/07 12:03:56;;;;;;;11.73;7.43;;;;;;;;;;4961939;29;20924;-78
2023/12/07 12:06:24;;;;;;;9.13;7.90;;;;;;;;;;4962052;29;20192;-78
2023/12/07 12:08:50;;;;;;;10.30;6.85;;;;;;;;;;4960416;28;20460;-78
2023/12/07 12:11:16;;;;;;;9.10;6.65;;;;;;;;;;4961263;28;20212;-78
2023/12/07 12:13:42;;;;;;;12.00;8.43;;;;;;;;;;4961004;29;20196;-78
2023/12/07 12:16:08;;;;;;;9.00;7.03;;;;;;;;;;4960920;28;20416;-79
2023/12/07 12:18:34;;;;;;;9.93;7.07;;;;;;;;;;4961463;28;20292;-79
2023/12/07 12:21:00;;;;;;;9.10;7.60;;;;;;;;;;4961369;29;20264;-79
2023/12/07 12:23:26;;;;;;;8.80;6.85;;;;;;;;;;4960723;29;20185;-78
2023/12/07 12:25:53;;;;;;;10.82;7.63;;;;;;;;;;4960582;28;20548;-79
2023/12/07 12:28:21;;;;;;;8.75;6.93;;;;;;;;;;4961089;28;20267;-78
2023/12/07 12:30:48;;;;;;;10.68;7.50;;;;;;;;;;4959148;29;20755;-78
2023/12/07 12:33:14;;;;;;;8.18;7.30;;;;;;;;;;4961143;28;20194;-78
2023/12/07 12:35:40;;;;;;;12.00;7.60;;;;;;;;;;4960557;29;20215;-78
2023/12/07 12:38:10;;;;;;;9.90;7.90;;;;;;;;;;4960643;29;20231;-78
2023/12/07 12:40:36;;;;;;;10.20;7.50;;;;;;;;;;4959714;29;20192;-79
2023/12/07 12:43:02;;;;;;;10.18;7.50;;;;;;;;;;4960871;28;20181;-78
2023/12/07 12:45:28;;;;;;;11.40;7.23;;;;;;;;;;4960367;28;20180;-78
2023/12/07 12:47:55;;;;;;;9.93;7.10;;;;;;;;;;4960540;28;20415;-78
2023/12/07 12:50:37;;;;;;;8.45;6.78;;;;;;;;;;4960377;28;20224;-78
2023/12/07 12:53:04;;;;;;;10.23;7.72;;;;;;;;;;4960440;28;20180;-78
2023/12/07 12:55:31;;;;;;;10.80;8.13;;;;;;;;;;4960595;28;20181;-78
2023/12/07 12:57:58;;;;;;;9.18;7.60;;;;;;;;;;4960335;29;20194;-79
2023/12/07 13:00:25;;;;;;;8.63;6.65;;;;;;;;;;4960639;29;20506;-78
2023/12/07 13:02:51;;;;;;;8.90;6.85;;;;;;;;;;4960095;29;20201;-78
2023/12/07 13:05:17;;;;;;;9.70;6.90;;;;;;;;;;4960174;29;20196;-78
2023/12/07 13:07:48;;;;;;;9.47;6.70;;;;;;;;;;4960032;28;20571;-78
2023/12/07 13:10:14;;;;;;;8.73;7.07;;;;;;;;;;4960229;29;20435;-78
2023/12/07 13:12:40;;;;;;;9.30;6.50;;;;;;;;;;4960627;29;20193;-78
2023/12/07 13:15:06;;;;;;;9.80;7.43;;;;;;;;;;4960438;29;20188;-78
2023/12/07 13:17:32;;;;;;;10.38;8.45;;;;;;;;;;4959749;29;20420;-80
2023/12/07 13:19:58;;;;;;;11.00;7.37;;;;;;;;;;4958888;28;20181;-79
2023/12/07 13:22:24;;;;;;;13.20;8.30;;;;;;;;;;4959965;29;20429;-78
2023/12/07 13:24:50;;;;;;;11.63;8.43;;;;;;;;;;4959310;28;20418;-81
2023/12/07 13:27:17;;;;;;;9.68;7.30;;;;;;;;;;4959631;29;20420;-78
2023/12/07 13:29:43;;;;;;;12.45;7.80;;;;;;;;;;4959384;28;20175;-79
2023/12/07 13:32:09;;;;;;;9.52;7.57;;;;;;;;;;4959203;28;20244;-79
2023/12/07 13:34:35;;;;;;;11.57;8.53;;;;;;;;;;4959115;28;20551;-79
2023/12/07 13:37:01;;;;;;;15.80;7.72;;;;;;;;;;4958922;29;20423;-80
2023/12/07 13:39:29;;;;;;;11.43;9.73;;;;;;;;;;4959650;28;20654;-78
2023/12/07 13:41:55;;;;;;;13.38;9.38;;;;;;;;;;4958836;29;20180;-79
2023/12/07 13:44:21;;;;;;;11.63;9.37;;;;;;;;;;4958796;29;20215;-79
2023/12/07 13:46:47;;;;;;;15.48;10.25;;;;;;;;;;4958762;29;20408;-79
2023/12/07 13:49:17;;;;;;;16.42;9.88;;;;;;;;;;4957937;28;20184;-79
2023/12/07 13:51:43;;;;;;;14.70;9.57;;;;;;;;;;4958081;29;20221;-79
2023/12/07 13:54:10;;;;;;;13.70;9.52;;;;;;;;;;4958401;28;20177;-79
2023/12/07 13:56:36;;;;;;;9.07;7.90;;;;;;;;;;4958895;29;20196;-79
2023/12/07 13:59:02;;;;;;;11.50;8.27;;;;;;;;;;4958430;29;20180;-79
2023/12/07 14:01:28;;;;;;;9.47;7.73;;;;;;;;;;4958533;29;20420;-79
2023/12/07 14:03:55;;;;;;;12.10;9.35;;;;;;;;;;4957455;28;20483;-79
2023/12/07 14:06:25;;;;;;;10.98;8.48;;;;;;;;;;4958354;29;20639;-79
2023/12/07 14:08:51;;;;;;;12.25;8.15;;;;;;;;;;4958191;28;20235;-79
2023/12/07 14:11:20;;;;;;;15.65;10.00;;;;;;;;;;4958927;29;20276;-79
2023/12/07 14:13:46;;;;;;;16.10;9.00;;;;;;;;;;4957879;29;20177;-79
2023/12/07 14:16:13;;;;;;;12.27;8.93;;;;;;;;;;4957795;29;20196;-78
2023/12/07 14:18:39;;;;;;;11.00;8.55;;;;;;;;;;4957979;29;20192;-85